createdAt,value
2023-04-21T00:01:34.759Z,50.82
2023-04-21T00:04:03.283Z,50.81
2023-04-21T00:06:31.395Z,51.01
2023-04-21T00:08:59.239Z,51.13
2023-04-21T00:11:27.014Z,50.93
2023-04-21T00:13:56.219Z,50.89
2023-04-21T00:16:24.102Z,50.95
2023-04-21T00:18:51.837Z,50.87
2023-04-21T00:21:19.597Z,50.96
2023-04-21T00:23:47.498Z,51.02
2023-04-21T00:26:15.477Z,51.09
2023-04-21T00:28:44.845Z,51.21
2023-04-21T00:31:12.642Z,51.26
2023-04-21T00:33:40.555Z,51.18
2023-04-21T00:36:08.431Z,51.38
2023-04-21T00:38:36.438Z,51.56
2023-04-21T00:41:04.421Z,51.61
2023-04-21T00:43:32.191Z,51.58
2023-04-21T00:45:59.966Z,51.60
2023-04-21T00:48:27.662Z,51.77
2023-04-21T00:50:55.486Z,51.66
2023-04-21T00:53:23.407Z,51.66
2023-04-21T00:55:51.942Z,51.49
2023-04-21T00:58:19.758Z,51.54
2023-04-21T01:00:47.680Z,51.76
2023-04-21T01:03:16.538Z,51.76
2023-04-21T01:05:44.550Z,51.64
2023-04-21T01:08:13.931Z,51.78
2023-04-21T01:10:42.364Z,51.67
2023-04-21T01:13:10.083Z,51.54
2023-04-21T01:15:37.892Z,51.71
2023-04-21T01:18:06.314Z,51.58
2023-04-21T01:20:34.574Z,51.55
2023-04-21T01:23:02.400Z,51.27
2023-04-21T01:25:30.271Z,51.24
2023-04-21T01:27:58.043Z,51.37
2023-04-21T01:30:25.841Z,51.46
2023-04-21T01:32:53.609Z,51.74
2023-04-21T01:35:21.442Z,51.72
2023-04-21T01:37:49.237Z,52.00
2023-04-21T01:40:17.046Z,51.81
2023-04-21T01:42:45.441Z,52.08
2023-04-21T01:45:14.055Z,52.01
2023-04-21T01:47:41.804Z,52.08
2023-04-21T01:50:10.140Z,52.04
2023-04-21T01:52:37.958Z,52.10
2023-04-21T01:55:06.350Z,51.91
2023-04-21T01:57:35.008Z,52.04
2023-04-21T02:00:04.756Z,52.23
2023-04-21T02:02:43.042Z,52.24
2023-04-21T02:05:13.518Z,52.31
2023-04-21T02:07:42.421Z,52.02
2023-04-21T02:10:11.424Z,52.20
2023-04-21T02:12:39.169Z,52.37
2023-04-21T02:15:07.947Z,52.30
2023-04-21T02:17:36.511Z,52.43
2023-04-21T02:20:04.735Z,52.53
2023-04-21T02:22:32.546Z,52.58
2023-04-21T02:25:00.311Z,52.61
2023-04-21T02:27:28.284Z,52.55
2023-04-21T02:29:56.067Z,52.65
2023-04-21T02:32:25.969Z,52.75
2023-04-21T02:34:54.217Z,52.58
2023-04-21T02:37:22.286Z,52.59
2023-04-21T02:39:50.102Z,52.60
2023-04-21T02:42:17.917Z,52.61
2023-04-21T02:44:45.968Z,52.52
2023-04-21T02:47:16.771Z,52.37
2023-04-21T02:49:44.638Z,52.58
2023-04-21T02:52:13.425Z,52.44
2023-04-21T02:54:41.106Z,52.40
2023-04-21T02:57:09.925Z,52.45
2023-04-21T02:59:37.631Z,52.39
2023-04-21T03:02:05.412Z,52.42
2023-04-21T03:04:34.184Z,52.45
2023-04-21T03:07:02.052Z,52.38
2023-04-21T03:09:29.826Z,52.35
2023-04-21T03:11:57.524Z,52.55
2023-04-21T03:14:25.415Z,52.52
2023-04-21T03:16:53.124Z,52.65
2023-04-21T03:19:21.162Z,52.78
2023-04-21T03:21:49.148Z,52.79
2023-04-21T03:24:17.245Z,53.04
2023-04-21T03:26:45.122Z,53.08
2023-04-21T03:29:12.908Z,53.15
2023-04-21T03:31:40.845Z,53.33
2023-04-21T03:34:08.540Z,53.19
2023-04-21T03:36:36.388Z,53.30
2023-04-21T03:39:20.576Z,53.42
2023-04-21T03:41:50.237Z,53.34
2023-04-21T03:44:17.966Z,53.41
2023-04-21T03:46:46.914Z,53.51
2023-04-21T03:49:14.660Z,53.50
2023-04-21T03:51:42.442Z,53.33
2023-04-21T03:54:10.235Z,53.42
2023-04-21T03:56:37.983Z,53.67
2023-04-21T03:59:06.160Z,53.43
2023-04-21T04:01:36.880Z,53.45
2023-04-21T04:04:04.915Z,53.51
2023-04-21T04:06:33.197Z,53.40
2023-04-21T04:09:04.337Z,53.47
2023-04-21T04:11:32.946Z,53.70
2023-04-21T04:14:00.839Z,53.82
2023-04-21T04:16:29.265Z,53.82
2023-04-21T04:18:57.216Z,53.89
2023-04-21T04:21:25.162Z,53.71
2023-04-21T04:23:53.245Z,53.88
2023-04-21T04:26:24.771Z,53.78
2023-04-21T04:28:53.441Z,53.93
2023-04-21T04:31:21.461Z,53.95
2023-04-21T04:33:49.487Z,54.03
2023-04-21T04:36:17.301Z,53.98
2023-04-21T04:38:48.421Z,54.06
2023-04-21T04:41:16.783Z,53.77
2023-04-21T04:43:45.169Z,53.92
2023-04-21T04:46:13.126Z,54.10
2023-04-21T04:48:41.352Z,54.09
2023-04-21T04:51:09.078Z,54.02
2023-04-21T04:53:37.451Z,54.28
2023-04-21T04:56:05.962Z,54.22
2023-04-21T04:58:33.912Z,54.25
2023-04-21T05:01:13.033Z,54.00
2023-04-21T05:03:43.187Z,54.34
2023-04-21T05:06:11.317Z,54.00
2023-04-21T05:08:40.168Z,54.26
2023-04-21T05:11:09.005Z,54.31
2023-04-21T05:13:39.548Z,54.24
2023-04-21T05:16:10.080Z,54.21
2023-04-21T05:18:38.273Z,54.39
2023-04-21T05:21:06.962Z,54.47
2023-04-21T05:23:35.675Z,54.57
2023-04-21T05:26:05.776Z,54.64
2023-04-21T05:28:33.595Z,54.88
2023-04-21T05:31:01.435Z,54.96
2023-04-21T05:33:31.751Z,55.03
2023-04-21T05:35:59.611Z,55.30
2023-04-21T05:38:27.599Z,55.22
2023-04-21T05:40:56.136Z,55.37
2023-04-21T05:43:23.938Z,55.38
2023-04-21T05:45:51.755Z,55.45
2023-04-21T05:48:22.463Z,55.43
2023-04-21T05:50:50.181Z,55.51
2023-04-21T05:53:18.077Z,55.44
2023-04-21T05:55:46.299Z,55.51
2023-04-21T05:58:14.137Z,55.53
2023-04-21T06:00:41.849Z,55.55
2023-04-21T06:03:11.644Z,55.81
2023-04-21T06:05:39.525Z,55.99
2023-04-21T06:08:07.499Z,55.85
2023-04-21T06:10:35.254Z,55.76
2023-04-21T06:13:03.138Z,55.76
2023-04-21T06:15:30.895Z,55.89
2023-04-21T06:18:00.588Z,55.83
2023-04-21T06:20:28.547Z,56.04
2023-04-21T06:22:57.559Z,56.10
2023-04-21T06:25:26.556Z,55.85
2023-04-21T06:27:54.325Z,56.01
2023-04-21T06:30:27.956Z,55.85
2023-04-21T06:32:55.887Z,56.15
2023-04-21T06:35:23.614Z,55.92
2023-04-21T06:37:52.099Z,55.80
2023-04-21T06:40:21.619Z,56.07
2023-04-21T06:42:51.022Z,55.94
2023-04-21T06:45:20.318Z,55.63
2023-04-21T06:47:49.766Z,56.06
2023-04-21T06:50:17.705Z,56.13
2023-04-21T06:52:45.448Z,56.49
2023-04-21T06:55:14.620Z,56.70
2023-04-21T06:57:45.168Z,57.07
2023-04-21T07:00:14.512Z,57.04
2023-04-21T07:02:42.447Z,57.30
2023-04-21T07:05:10.715Z,57.44
2023-04-21T07:07:38.411Z,57.82
2023-04-21T07:10:07.141Z,57.36
2023-04-21T07:12:36.774Z,57.61
2023-04-21T07:15:12.212Z,57.28
2023-04-21T07:17:43.469Z,57.42
2023-04-21T07:20:11.661Z,57.00
2023-04-21T07:22:39.385Z,56.50
2023-04-21T07:25:09.361Z,56.34
2023-04-21T07:27:37.383Z,56.24
2023-04-21T07:30:07.938Z,55.92
2023-04-21T07:32:38.785Z,55.64
2023-04-21T07:35:12.977Z,55.57
2023-04-21T07:37:41.192Z,55.37
2023-04-21T07:40:10.226Z,55.05
2023-04-21T07:42:40.511Z,55.16
2023-04-21T07:45:08.963Z,55.14
2023-04-21T07:47:36.862Z,55.20
2023-04-21T07:50:07.582Z,54.90
2023-04-21T07:52:35.529Z,54.79
2023-04-21T07:55:06.302Z,54.60
2023-04-21T07:57:38.633Z,54.53
2023-04-21T08:00:07.772Z,54.47
2023-04-21T08:02:39.998Z,54.45
2023-04-21T08:05:10.145Z,54.36
2023-04-21T08:07:38.285Z,54.44
2023-04-21T08:10:08.810Z,54.49
2023-04-21T08:12:38.995Z,54.52
2023-04-21T08:15:08.427Z,54.38
2023-04-21T08:17:36.293Z,54.39
2023-04-21T08:20:05.655Z,54.21
2023-04-21T08:22:40.933Z,54.12
2023-04-21T08:25:10.968Z,53.90
2023-04-21T08:27:40.012Z,53.51
2023-04-21T08:30:09.179Z,53.45
2023-04-21T08:32:38.646Z,53.47
2023-04-21T08:35:07.396Z,53.37
2023-04-21T08:37:38.019Z,53.19
2023-04-21T08:40:07.319Z,53.31
2023-04-21T08:42:37.044Z,53.34
2023-04-21T08:45:06.942Z,53.15
2023-04-21T08:47:36.642Z,52.97
2023-04-21T08:50:04.964Z,52.91
2023-04-21T08:52:33.617Z,52.63
2023-04-21T08:55:03.706Z,52.46
2023-04-21T08:57:36.918Z,52.36
2023-04-21T09:00:07.941Z,52.45
2023-04-21T09:03:02.256Z,51.87
2023-04-21T09:05:33.962Z,52.20
2023-04-21T09:08:18.489Z,51.66
2023-04-21T09:10:52.470Z,51.57
2023-04-21T09:13:24.449Z,51.42
2023-04-21T09:15:52.735Z,51.34
2023-04-21T09:18:23.713Z,51.19
2023-04-21T09:21:10.577Z,50.78
2023-04-21T09:23:52.789Z,50.79
2023-04-21T09:26:25.226Z,50.42
2023-04-21T09:28:54.889Z,50.52
2023-04-21T09:31:30.193Z,50.55
2023-04-21T09:34:00.762Z,50.47
2023-04-21T09:36:31.991Z,50.12
2023-04-21T09:41:34.183Z,49.75
2023-04-21T09:44:04.069Z,49.61
2023-04-21T09:46:37.602Z,49.45
2023-04-21T09:49:06.624Z,49.23
2023-04-21T09:54:29.271Z,49.43
2023-04-21T09:57:03.970Z,49.25
2023-04-21T09:59:37.411Z,48.97
2023-04-21T10:02:07.733Z,49.01
2023-04-21T10:04:39.194Z,48.66
2023-04-21T10:07:12.494Z,48.86
2023-04-21T10:09:58.141Z,48.42
2023-04-21T10:12:27.756Z,48.56
2023-04-21T10:14:56.942Z,48.25
2023-04-21T10:17:27.749Z,48.24
2023-04-21T10:19:57.774Z,48.01
2023-04-21T10:22:30.557Z,47.93
2023-04-21T10:25:01.291Z,47.73
2023-04-21T10:27:43.263Z,47.55
2023-04-21T10:30:28.855Z,47.53
2023-04-21T10:33:05.345Z,47.34
2023-04-21T10:35:58.834Z,47.41
2023-04-21T10:38:44.151Z,47.14
2023-04-21T10:41:33.958Z,47.25
2023-04-21T10:44:22.441Z,47.28
2023-04-21T10:46:52.984Z,47.50
2023-04-21T10:49:30.208Z,47.11
2023-04-21T10:52:06.281Z,47.05
2023-04-21T10:54:46.389Z,46.70
2023-04-21T10:57:20.020Z,46.98
2023-04-21T10:59:51.858Z,46.96
2023-04-21T11:02:19.848Z,47.16
2023-04-21T11:04:54.709Z,47.02
2023-04-21T11:07:26.843Z,46.97
2023-04-21T11:10:15.645Z,46.91
2023-04-21T11:12:43.403Z,46.99
2023-04-21T11:15:20.944Z,46.82
2023-04-21T11:17:51.491Z,46.91
2023-04-21T11:20:19.261Z,46.92
2023-04-21T11:22:55.776Z,46.80
2023-04-21T11:25:25.991Z,46.78
2023-04-21T11:27:59.927Z,47.09
2023-04-21T11:30:35.424Z,46.65
2023-04-21T11:33:05.406Z,46.53
2023-04-21T11:35:33.276Z,46.57
2023-04-21T11:38:05.894Z,46.23
2023-04-21T11:40:51.151Z,46.31
2023-04-21T11:43:23.367Z,46.53
2023-04-21T11:45:51.530Z,46.12
2023-04-21T11:48:22.488Z,46.60
2023-04-21T11:50:50.849Z,46.32
2023-04-21T11:53:20.883Z,46.23
2023-04-21T11:55:48.629Z,46.13
2023-04-21T11:58:17.750Z,45.92
2023-04-21T12:00:47.159Z,46.08
2023-04-21T12:03:19.663Z,46.00
2023-04-21T12:05:56.976Z,45.90
2023-04-21T12:08:24.887Z,46.14
2023-04-21T12:10:52.733Z,45.73
2023-04-21T12:13:30.713Z,45.99
2023-04-21T12:16:04.203Z,45.84
2023-04-21T12:18:36.764Z,45.91
2023-04-21T12:21:04.872Z,45.48
2023-04-21T12:23:33.913Z,45.75
2023-04-21T12:26:01.909Z,45.41
2023-04-21T12:28:30.258Z,45.70
2023-04-21T12:30:58.113Z,45.50
2023-04-21T12:33:25.974Z,45.48
2023-04-21T12:35:55.140Z,45.40
2023-04-21T12:38:22.920Z,45.32
2023-04-21T12:40:50.749Z,45.69
2023-04-21T12:43:18.495Z,45.71
2023-04-21T12:45:48.111Z,45.58
2023-04-21T12:48:16.021Z,45.44
2023-04-21T12:50:43.935Z,45.13
2023-04-21T12:53:11.646Z,45.29
2023-04-21T12:55:40.180Z,45.02
2023-04-21T12:58:12.601Z,45.12
2023-04-21T13:00:41.433Z,45.25
2023-04-21T13:03:10.960Z,45.40
2023-04-21T13:05:45.957Z,44.94
2023-04-21T13:08:14.505Z,45.12
2023-04-21T13:10:42.222Z,45.30
2023-04-21T13:13:10.045Z,44.97
2023-04-21T13:15:41.444Z,44.89
2023-04-21T13:18:09.536Z,44.74
2023-04-21T13:20:37.272Z,44.60
2023-04-21T13:23:05.094Z,44.51
2023-04-21T13:25:33.048Z,44.52
2023-04-21T13:28:01.189Z,44.46
2023-04-21T13:30:29.096Z,44.48
2023-04-21T13:32:58.618Z,44.32
2023-04-21T13:35:26.450Z,44.49
2023-04-21T13:37:54.371Z,44.62
2023-04-21T13:40:22.081Z,44.28
2023-04-21T13:42:49.922Z,44.14
2023-04-21T13:45:17.658Z,44.29
2023-04-21T13:47:45.439Z,44.36
2023-04-21T13:50:13.160Z,44.15
2023-04-21T13:52:40.933Z,43.82
2023-04-21T13:55:09.172Z,43.99
2023-04-21T13:57:38.156Z,43.96
2023-04-21T14:00:08.094Z,44.17
2023-04-21T14:02:39.050Z,43.87
2023-04-21T14:05:09.565Z,43.69
2023-04-21T14:07:39.635Z,43.87
2023-04-21T14:10:08.133Z,43.68
2023-04-21T14:12:36.054Z,43.73
2023-04-21T14:15:06.000Z,43.40
2023-04-21T14:17:35.792Z,43.61
2023-04-21T14:20:04.279Z,43.51
2023-04-21T14:22:31.955Z,43.41
2023-04-21T14:25:02.500Z,43.22
2023-04-21T14:27:34.239Z,43.27
2023-04-21T14:30:02.909Z,43.31
2023-04-21T14:32:30.814Z,43.26
2023-04-21T14:35:00.587Z,43.24
2023-04-21T14:37:28.340Z,42.86
2023-04-21T14:39:56.014Z,42.79
2023-04-21T14:42:23.868Z,42.85
2023-04-21T14:44:52.378Z,42.62
2023-04-21T14:47:21.929Z,42.58
2023-04-21T14:49:54.683Z,42.72
2023-04-21T14:52:27.159Z,42.54
2023-04-21T14:54:56.959Z,42.31
2023-04-21T14:57:24.820Z,42.24
2023-04-21T14:59:53.565Z,42.12
2023-04-21T15:02:22.533Z,41.89
2023-04-21T15:04:50.771Z,42.31
2023-04-21T15:07:24.475Z,41.89
2023-04-21T15:09:55.657Z,41.91
2023-04-21T15:12:23.495Z,42.06
2023-04-21T15:14:51.604Z,41.79
2023-04-21T15:17:19.324Z,41.70
2023-04-21T15:19:48.501Z,41.69
2023-04-21T15:22:16.391Z,41.66
2023-04-21T15:24:44.169Z,41.66
2023-04-21T15:27:11.911Z,41.64
2023-04-21T15:29:39.762Z,41.80
2023-04-21T15:32:07.587Z,41.75
2023-04-21T15:34:35.626Z,41.77
2023-04-21T15:37:03.339Z,41.87
2023-04-21T15:39:31.062Z,41.93
2023-04-21T15:41:59.377Z,42.06
2023-04-21T15:44:27.290Z,41.91
2023-04-21T15:46:55.127Z,41.84
2023-04-21T15:49:25.726Z,41.92
2023-04-21T15:51:53.866Z,42.01
2023-04-21T15:54:21.672Z,40.72
2023-04-21T15:56:49.735Z,40.29
2023-04-21T15:59:17.426Z,39.63
2023-04-21T16:01:45.302Z,39.12
2023-04-21T16:04:13.437Z,39.14
2023-04-21T16:06:41.571Z,39.30
2023-04-21T16:09:10.831Z,39.76
2023-04-21T16:11:38.639Z,40.11
2023-04-21T16:14:08.246Z,40.83
2023-04-21T16:16:37.349Z,41.83
2023-04-21T16:19:05.299Z,42.99
2023-04-21T16:21:33.011Z,43.99
2023-04-21T16:24:00.868Z,45.10
2023-04-21T16:26:28.976Z,46.03
2023-04-21T16:28:57.875Z,46.34
2023-04-21T16:31:25.919Z,47.14
2023-04-21T16:34:00.300Z,47.62
2023-04-21T16:36:28.858Z,48.07
2023-04-21T16:38:56.729Z,48.48
2023-04-21T16:41:25.504Z,48.66
2023-04-21T16:43:53.555Z,48.19
2023-04-21T16:46:21.971Z,48.07
2023-04-21T16:48:49.869Z,48.29
2023-04-21T16:51:17.936Z,48.73
2023-04-21T16:53:45.765Z,49.02
2023-04-21T16:56:14.756Z,49.25
2023-04-21T16:58:42.506Z,49.90
2023-04-21T17:01:10.297Z,49.60
2023-04-21T17:03:39.091Z,49.85
2023-04-21T17:06:10.737Z,49.62
2023-04-21T17:08:39.256Z,49.97
2023-04-21T17:11:07.254Z,50.18
2023-04-21T17:13:38.044Z,50.21
2023-04-21T17:16:09.631Z,49.99
2023-04-21T17:18:39.438Z,50.22
2023-04-21T17:21:07.226Z,50.14
2023-04-21T17:23:35.454Z,50.28
2023-04-21T17:26:05.151Z,50.18
2023-04-21T17:28:33.496Z,50.13
2023-04-21T17:31:14.578Z,49.87
2023-04-21T17:33:44.688Z,49.93
2023-04-21T17:36:12.661Z,49.85
2023-04-21T17:38:42.550Z,50.13
2023-04-21T17:41:10.554Z,49.57
2023-04-21T17:43:38.258Z,49.54
2023-04-21T17:46:07.419Z,49.47
2023-04-21T17:48:35.249Z,49.49
2023-04-21T17:51:03.957Z,49.34
2023-04-21T17:53:32.022Z,49.47
2023-04-21T17:56:00.059Z,49.41
2023-04-21T17:58:29.856Z,49.57
2023-04-21T18:00:57.640Z,49.87
2023-04-21T18:03:27.458Z,49.50
2023-04-21T18:05:56.022Z,49.09
2023-04-21T18:08:23.930Z,48.95
2023-04-21T18:10:51.750Z,48.87
2023-04-21T18:13:19.476Z,48.71
2023-04-21T18:15:47.234Z,48.64
2023-04-21T18:18:15.454Z,48.36
2023-04-21T18:20:43.358Z,48.36
2023-04-21T18:23:11.367Z,48.30
2023-04-21T18:25:42.728Z,48.31
2023-04-21T18:28:14.369Z,48.22
2023-04-21T18:30:42.506Z,48.00
2023-04-21T18:33:11.524Z,47.85
2023-04-21T18:35:41.514Z,47.89
2023-04-21T18:38:11.611Z,48.23
2023-04-21T18:40:40.769Z,48.27
2023-04-21T18:43:09.914Z,48.06
2023-04-21T18:45:38.683Z,48.30
2023-04-21T18:48:06.450Z,47.93
2023-04-21T18:50:39.313Z,47.78
2023-04-21T18:53:08.550Z,47.50
2023-04-21T18:55:37.348Z,47.42
2023-04-21T18:58:05.159Z,47.28
2023-04-21T19:00:37.172Z,47.48
2023-04-21T19:03:06.253Z,47.46
2023-04-21T19:05:36.073Z,47.45
2023-04-21T19:08:07.404Z,47.41
2023-04-21T19:10:35.680Z,47.35
2023-04-21T19:13:04.232Z,47.50
2023-04-21T19:15:32.153Z,47.45
2023-04-21T19:17:59.976Z,47.44
2023-04-21T19:20:28.991Z,47.36
2023-04-21T19:22:56.827Z,47.59
2023-04-21T19:25:26.072Z,47.76
2023-04-21T19:27:54.075Z,47.65
2023-04-21T19:30:21.936Z,47.61
2023-04-21T19:32:49.698Z,47.56
2023-04-21T19:35:17.578Z,47.63
2023-04-21T19:37:47.932Z,47.79
2023-04-21T19:40:16.002Z,47.80
2023-04-21T19:42:43.679Z,47.71
2023-04-21T19:45:12.693Z,47.88
2023-04-21T19:47:40.486Z,47.82
2023-04-21T19:50:09.235Z,47.91
2023-04-21T19:52:37.108Z,47.94
2023-04-21T19:55:06.396Z,47.97
2023-04-21T19:57:35.862Z,47.98
2023-04-21T20:00:06.167Z,47.97
2023-04-21T20:02:40.109Z,47.98
2023-04-21T20:05:10.870Z,47.98
2023-04-21T20:07:39.614Z,47.95
2023-04-21T20:10:08.633Z,48.11
2023-04-21T20:12:36.462Z,47.91
2023-04-21T20:15:05.589Z,47.93
2023-04-21T20:17:35.341Z,47.91
2023-04-21T20:20:05.275Z,47.97
2023-04-21T20:22:33.035Z,47.93
2023-04-21T20:25:00.834Z,47.68
2023-04-21T20:27:28.489Z,47.77
2023-04-21T20:29:56.962Z,47.89
2023-04-21T20:32:25.040Z,48.01
2023-04-21T20:34:53.703Z,48.13
2023-04-21T20:37:23.004Z,48.33
2023-04-21T20:39:50.935Z,48.26
2023-04-21T20:42:19.317Z,48.45
2023-04-21T20:44:48.135Z,48.48
2023-04-21T20:47:17.743Z,48.56
2023-04-21T20:49:47.336Z,48.71
2023-04-21T20:52:15.941Z,48.73
2023-04-21T20:54:43.702Z,48.88
2023-04-21T20:57:12.106Z,48.99
2023-04-21T20:59:40.714Z,49.13
2023-04-21T21:02:09.090Z,49.13
2023-04-21T21:04:36.910Z,49.23
2023-04-21T21:07:04.740Z,49.39
2023-04-21T21:09:32.411Z,49.28
2023-04-21T21:12:02.318Z,49.40
2023-04-21T21:14:30.128Z,49.35
2023-04-21T21:16:58.211Z,49.38
2023-04-21T21:19:26.277Z,49.43
2023-04-21T21:21:54.201Z,49.48
2023-04-21T21:24:21.952Z,49.45
2023-04-21T21:26:50.758Z,49.47
2023-04-21T21:29:20.460Z,49.50
2023-04-21T21:31:48.206Z,49.47
2023-04-21T21:34:16.017Z,49.39
2023-04-21T21:36:43.833Z,49.25
2023-04-21T21:39:11.607Z,49.37
2023-04-21T21:41:39.717Z,49.16
2023-04-21T21:44:08.332Z,49.16
2023-04-21T21:46:36.396Z,49.17
2023-04-21T21:49:04.750Z,49.22
2023-04-21T21:51:32.669Z,49.20
2023-04-21T21:54:00.511Z,49.08
2023-04-21T21:56:28.396Z,48.97
2023-04-21T21:58:56.182Z,49.07
2023-04-21T22:01:23.965Z,49.15
2023-04-21T22:03:53.038Z,49.05
2023-04-21T22:06:26.511Z,49.08
2023-04-21T22:08:54.708Z,49.02
2023-04-21T22:11:22.871Z,49.06
2023-04-21T22:13:51.386Z,49.04
2023-04-21T22:16:19.181Z,49.01
2023-04-21T22:18:48.298Z,48.98
2023-04-21T22:21:16.166Z,49.08
2023-04-21T22:23:43.861Z,49.05
2023-04-21T22:26:11.688Z,49.05
2023-04-21T22:28:41.629Z,49.05
2023-04-21T22:31:10.464Z,49.09
2023-04-21T22:33:38.312Z,48.96
2023-04-21T22:36:08.535Z,49.16
2023-04-21T22:38:38.502Z,49.32
2023-04-21T22:41:07.182Z,49.17
2023-04-21T22:43:35.052Z,49.41
2023-04-21T22:46:03.117Z,49.33
2023-04-21T22:48:32.624Z,49.33
2023-04-21T22:51:01.435Z,49.48
2023-04-21T22:53:29.444Z,49.56
2023-04-21T22:55:57.328Z,49.60
2023-04-21T22:58:26.187Z,49.62
2023-04-21T23:00:54.133Z,49.79
2023-04-21T23:03:23.169Z,49.75
2023-04-21T23:05:51.072Z,49.88
2023-04-21T23:08:18.820Z,49.89
2023-04-21T23:10:47.428Z,50.04
2023-04-21T23:13:15.164Z,50.11
2023-04-21T23:15:42.911Z,50.21
2023-04-21T23:18:10.713Z,50.24
2023-04-21T23:20:38.583Z,50.31
2023-04-21T23:23:06.544Z,50.46
2023-04-21T23:25:34.325Z,50.48
2023-04-21T23:28:02.088Z,50.51
2023-04-21T23:30:29.997Z,50.52
2023-04-21T23:32:58.056Z,50.66
2023-04-21T23:35:26.159Z,50.70
2023-04-21T23:37:56.044Z,50.75
2023-04-21T23:40:23.994Z,50.71
2023-04-21T23:42:51.733Z,50.81
2023-04-21T23:45:19.826Z,50.92
2023-04-21T23:47:47.561Z,50.87
2023-04-21T23:50:15.367Z,50.96
2023-04-21T23:52:44.143Z,51.00
2023-04-21T23:55:12.932Z,51.06
2023-04-21T23:57:40.685Z,51.32
